sensor_id;sensor_type;location;lat;lon;timestamp;pressure;altitude;pressure_sealevel;temperature;humidity
66430;BME280;53242;51.694;10.006;2023-03-22T00:00:35;99177.81;;;9.68;80.92
66430;BME280;53242;51.694;10.006;2023-03-22T00:02:58;99174.53;;;9.66;81.01
66430;BME280;53242;51.694;10.006;2023-03-22T00:05:21;99166.03;;;9.64;81.00
66430;BME280;53242;51.694;10.006;2023-03-22T00:07:43;99176.16;;;9.60;81.00
66430;BME280;53242;51.694;10.006;2023-03-22T00:10:06;99174.69;;;9.51;81.25
66430;BME280;53242;51.694;10.006;2023-03-22T00:12:28;99170.22;;;9.51;81.32
66430;BME280;53242;51.694;10.006;2023-03-22T00:14:51;99165.97;;;9.50;81.14
66430;BME280;53242;51.694;10.006;2023-03-22T00:17:13;99161.13;;;9.54;80.79
66430;BME280;53242;51.694;10.006;2023-03-22T00:19:35;99156.63;;;9.48;81.56
66430;BME280;53242;51.694;10.006;2023-03-22T00:21:58;99150.97;;;9.44;81.78
66430;BME280;53242;51.694;10.006;2023-03-22T00:24:22;99147.31;;;9.45;81.62
66430;BME280;53242;51.694;10.006;2023-03-22T00:26:44;99151.41;;;9.54;81.24
66430;BME280;53242;51.694;10.006;2023-03-22T00:29:09;99143.28;;;9.49;81.64
66430;BME280;53242;51.694;10.006;2023-03-22T00:31:31;99143.31;;;9.56;81.09
66430;BME280;53242;51.694;10.006;2023-03-22T00:33:54;99149.00;;;9.60;81.09
66430;BME280;53242;51.694;10.006;2023-03-22T00:36:16;99146.16;;;9.61;81.11
66430;BME280;53242;51.694;10.006;2023-03-22T00:38:39;99141.56;;;9.70;80.87
66430;BME280;53242;51.694;10.006;2023-03-22T00:41:08;99138.47;;;9.60;81.23
66430;BME280;53242;51.694;10.006;2023-03-22T00:43:32;99147.19;;;9.67;81.00
66430;BME280;53242;51.694;10.006;2023-03-22T00:45:55;99143.53;;;9.61;81.28
66430;BME280;53242;51.694;10.006;2023-03-22T00:48:17;99143.75;;;9.60;81.30
66430;BME280;53242;51.694;10.006;2023-03-22T00:50:41;99142.53;;;9.62;81.55
66430;BME280;53242;51.694;10.006;2023-03-22T00:53:03;99137.84;;;9.58;81.75
66430;BME280;53242;51.694;10.006;2023-03-22T00:55:26;99136.84;;;9.65;81.68
66430;BME280;53242;51.694;10.006;2023-03-22T00:57:48;99135.84;;;9.60;81.81
66430;BME280;53242;51.694;10.006;2023-03-22T01:00:11;99136.22;;;9.63;81.36
66430;BME280;53242;51.694;10.006;2023-03-22T01:02:35;99136.44;;;9.62;81.70
66430;BME280;53242;51.694;10.006;2023-03-22T01:04:57;99132.56;;;9.58;81.90
66430;BME280;53242;51.694;10.006;2023-03-22T01:07:21;99129.94;;;9.58;81.80
66430;BME280;53242;51.694;10.006;2023-03-22T01:09:45;99127.50;;;9.56;82.05
66430;BME280;53242;51.694;10.006;2023-03-22T01:12:10;99124.44;;;9.52;82.20
66430;BME280;53242;51.694;10.006;2023-03-22T01:14:33;99129.94;;;9.58;81.89
66430;BME280;53242;51.694;10.006;2023-03-22T01:16:55;99124.88;;;9.63;81.99
66430;BME280;53242;51.694;10.006;2023-03-22T01:19:18;99118.78;;;9.55;81.78
66430;BME280;53242;51.694;10.006;2023-03-22T01:21:41;99128.09;;;9.58;81.87
66430;BME280;53242;51.694;10.006;2023-03-22T01:24:03;99116.97;;;9.63;81.57
66430;BME280;53242;51.694;10.006;2023-03-22T01:26:26;99119.63;;;9.63;81.54
66430;BME280;53242;51.694;10.006;2023-03-22T01:28:48;99130.94;;;9.57;81.63
66430;BME280;53242;51.694;10.006;2023-03-22T01:31:10;99123.25;;;9.62;81.42
66430;BME280;53242;51.694;10.006;2023-03-22T01:33:33;99129.72;;;9.52;81.64
66430;BME280;53242;51.694;10.006;2023-03-22T01:35:55;99121.81;;;9.52;81.74
66430;BME280;53242;51.694;10.006;2023-03-22T01:38:18;99117.13;;;9.48;81.76
66430;BME280;53242;51.694;10.006;2023-03-22T01:40:49;99111.69;;;9.49;81.68
66430;BME280;53242;51.694;10.006;2023-03-22T01:43:13;99113.50;;;9.55;81.50
66430;BME280;53242;51.694;10.006;2023-03-22T01:45:42;99115.16;;;9.63;81.29
66430;BME280;53242;51.694;10.006;2023-03-22T01:48:14;99106.03;;;9.59;81.00
66430;BME280;53242;51.694;10.006;2023-03-22T01:50:43;99105.00;;;9.53;81.18
66430;BME280;53242;51.694;10.006;2023-03-22T01:53:07;99104.78;;;9.48;81.42
66430;BME280;53242;51.694;10.006;2023-03-22T01:55:32;99100.97;;;9.58;81.34
66430;BME280;53242;51.694;10.006;2023-03-22T01:58:04;99105.22;;;9.52;81.74
66430;BME280;53242;51.694;10.006;2023-03-22T02:00:37;99093.41;;;9.41;81.90
66430;BME280;53242;51.694;10.006;2023-03-22T02:03:15;99092.38;;;9.42;82.16
66430;BME280;53242;51.694;10.006;2023-03-22T02:05:42;99096.66;;;9.43;82.02
66430;BME280;53242;51.694;10.006;2023-03-22T02:08:06;99090.38;;;9.44;82.22
66430;BME280;53242;51.694;10.006;2023-03-22T02:10:47;99096.25;;;9.53;81.86
66430;BME280;53242;51.694;10.006;2023-03-22T02:13:24;99099.09;;;9.45;82.50
66430;BME280;53242;51.694;10.006;2023-03-22T02:19:24;99094.25;;;9.48;82.06
66430;BME280;53242;51.694;10.006;2023-03-22T02:22:22;99099.94;;;9.52;82.34
66430;BME280;53242;51.694;10.006;2023-03-22T02:28:02;99090.97;;;9.46;82.60
66430;BME280;53242;51.694;10.006;2023-03-22T02:31:03;99090.97;;;9.46;82.67
66430;BME280;53242;51.694;10.006;2023-03-22T02:33:55;99077.22;;;9.51;82.44
66430;BME280;53242;51.694;10.006;2023-03-22T02:45:03;99075.63;;;9.57;82.12
66430;BME280;53242;51.694;10.006;2023-03-22T02:47:36;99077.22;;;9.44;82.26
66430;BME280;53242;51.694;10.006;2023-03-22T02:50:15;99070.91;;;9.38;83.01
66430;BME280;53242;51.694;10.006;2023-03-22T02:52:48;99064.44;;;9.48;82.23
66430;BME280;53242;51.694;10.006;2023-03-22T02:55:25;99064.81;;;9.38;82.62
66430;BME280;53242;51.694;10.006;2023-03-22T02:58:06;99060.16;;;9.40;82.92
66430;BME280;53242;51.694;10.006;2023-03-22T03:00:30;99062.78;;;9.33;82.79
66430;BME280;53242;51.694;10.006;2023-03-22T03:02:58;99060.56;;;9.37;82.51
66430;BME280;53242;51.694;10.006;2023-03-22T03:05:24;99068.88;;;9.34;82.85
66430;BME280;53242;51.694;10.006;2023-03-22T03:07:55;99065.47;;;9.47;82.63
66430;BME280;53242;51.694;10.006;2023-03-22T03:10:40;99053.66;;;9.36;83.01
66430;BME280;53242;51.694;10.006;2023-03-22T03:13:02;99058.34;;;9.34;82.81
66430;BME280;53242;51.694;10.006;2023-03-22T03:15:25;99046.59;;;9.36;82.61
66430;BME280;53242;51.694;10.006;2023-03-22T03:17:58;99047.41;;;9.44;82.61
66430;BME280;53242;51.694;10.006;2023-03-22T03:20:53;99052.25;;;9.40;82.88
66430;BME280;53242;51.694;10.006;2023-03-22T03:23:27;99054.06;;;9.33;82.97
66430;BME280;53242;51.694;10.006;2023-03-22T03:28:31;99063.81;;;9.39;83.02
66430;BME280;53242;51.694;10.006;2023-03-22T03:31:05;99061.38;;;9.37;82.80
66430;BME280;53242;51.694;10.006;2023-03-22T03:33:31;99064.63;;;9.40;82.52
66430;BME280;53242;51.694;10.006;2023-03-22T03:36:04;99056.28;;;9.36;82.92
66430;BME280;53242;51.694;10.006;2023-03-22T03:38:30;99055.72;;;9.47;82.34
66430;BME280;53242;51.694;10.006;2023-03-22T03:41:13;99050.03;;;9.37;82.89
66430;BME280;53242;51.694;10.006;2023-03-22T03:43:38;99045.72;;;9.23;82.92
66430;BME280;53242;51.694;10.006;2023-03-22T03:46:02;99040.03;;;9.19;83.33
66430;BME280;53242;51.694;10.006;2023-03-22T03:48:29;99033.56;;;9.21;83.20
66430;BME280;53242;51.694;10.006;2023-03-22T03:50:53;99031.72;;;9.15;83.12
66430;BME280;53242;51.694;10.006;2023-03-22T03:53:17;99028.28;;;9.21;82.98
66430;BME280;53242;51.694;10.006;2023-03-22T03:55:39;99027.06;;;9.17;82.99
66430;BME280;53242;51.694;10.006;2023-03-22T03:58:02;99031.72;;;9.22;82.88
66430;BME280;53242;51.694;10.006;2023-03-22T04:00:24;99022.59;;;9.18;83.08
66430;BME280;53242;51.694;10.006;2023-03-22T04:03:19;99026.06;;;9.18;82.86
66430;BME280;53242;51.694;10.006;2023-03-22T04:05:57;99032.50;;;9.09;83.40
66430;BME280;53242;51.694;10.006;2023-03-22T04:08:21;99029.28;;;9.14;82.98
66430;BME280;53242;51.694;10.006;2023-03-22T04:10:48;99024.59;;;9.09;83.22
66430;BME280;53242;51.694;10.006;2023-03-22T04:13:11;99023.44;;;9.18;82.80
66430;BME280;53242;51.694;10.006;2023-03-22T04:15:34;99026.66;;;9.14;82.99
66430;BME280;53242;51.694;10.006;2023-03-22T04:18:00;99022.00;;;9.16;83.07
66430;BME280;53242;51.694;10.006;2023-03-22T04:20:24;99029.09;;;9.15;83.08
66430;BME280;53242;51.694;10.006;2023-03-22T04:22:48;99028.28;;;9.15;83.12
66430;BME280;53242;51.694;10.006;2023-03-22T04:25:11;99018.94;;;9.12;83.13
66430;BME280;53242;51.694;10.006;2023-03-22T04:27:40;99027.22;;;9.09;83.24
66430;BME280;53242;51.694;10.006;2023-03-22T04:30:07;99018.94;;;9.12;83.45
66430;BME280;53242;51.694;10.006;2023-03-22T04:32:56;99012.41;;;9.01;83.74
66430;BME280;53242;51.694;10.006;2023-03-22T04:35:29;99010.59;;;8.95;84.35
66430;BME280;53242;51.694;10.006;2023-03-22T04:37:51;99000.69;;;9.04;83.94
66430;BME280;53242;51.694;10.006;2023-03-22T04:40:16;99004.34;;;9.03;83.81
66430;BME280;53242;51.694;10.006;2023-03-22T04:43:00;98999.47;;;9.07;83.32
66430;BME280;53242;51.694;10.006;2023-03-22T04:45:42;98999.06;;;9.03;83.43
66430;BME280;53242;51.694;10.006;2023-03-22T04:48:07;98994.81;;;9.02;83.38
66430;BME280;53242;51.694;10.006;2023-03-22T04:50:31;98994.22;;;9.07;83.17
66430;BME280;53242;51.694;10.006;2023-03-22T04:52:58;99000.09;;;9.09;83.09
66430;BME280;53242;51.694;10.006;2023-03-22T04:55:21;98995.25;;;9.05;83.03
66430;BME280;53242;51.694;10.006;2023-03-22T04:57:44;98995.63;;;9.02;83.34
66430;BME280;53242;51.694;10.006;2023-03-22T05:00:07;99000.31;;;9.07;83.29
66430;BME280;53242;51.694;10.006;2023-03-22T05:02:30;99005.59;;;9.14;82.85
66430;BME280;53242;51.694;10.006;2023-03-22T05:04:52;99000.09;;;9.09;83.26
66430;BME280;53242;51.694;10.006;2023-03-22T05:07:26;99005.16;;;9.10;83.22
66430;BME280;53242;51.694;10.006;2023-03-22T05:09:52;99008.78;;;9.09;83.18
66430;BME280;53242;51.694;10.006;2023-03-22T05:12:14;99001.13;;;9.14;82.79
66430;BME280;53242;51.694;10.006;2023-03-22T05:14:44;98997.88;;;9.12;82.79
66430;BME280;53242;51.694;10.006;2023-03-22T05:17:08;98997.03;;;9.05;83.15
66430;BME280;53242;51.694;10.006;2023-03-22T05:19:34;98990.97;;;9.04;82.75
66430;BME280;53242;51.694;10.006;2023-03-22T05:21:57;98997.88;;;9.05;82.79
66430;BME280;53242;51.694;10.006;2023-03-22T05:24:35;98987.91;;;9.01;82.75
66430;BME280;53242;51.694;10.006;2023-03-22T05:26:57;98991.78;;;9.05;82.76
66430;BME280;53242;51.694;10.006;2023-03-22T05:29:22;98992.19;;;9.02;82.68
66430;BME280;53242;51.694;10.006;2023-03-22T05:32:02;98997.03;;;8.98;82.56
66430;BME280;53242;51.694;10.006;2023-03-22T05:34:24;98995.78;;;8.94;83.14
66430;BME280;53242;51.694;10.006;2023-03-22T05:37:02;98998.81;;;8.91;83.23
66430;BME280;53242;51.694;10.006;2023-03-22T05:39:29;98998.63;;;8.93;83.20
66430;BME280;53242;51.694;10.006;2023-03-22T05:41:52;99010.41;;;9.03;82.93
66430;BME280;53242;51.694;10.006;2023-03-22T05:44:15;99006.34;;;9.01;83.13
66430;BME280;53242;51.694;10.006;2023-03-22T05:46:47;99006.78;;;9.11;82.79
66430;BME280;53242;51.694;10.006;2023-03-22T05:49:29;99015.69;;;9.10;82.95
66430;BME280;53242;51.694;10.006;2023-03-22T05:51:52;99010.22;;;9.12;83.01
66430;BME280;53242;51.694;10.006;2023-03-22T05:54:18;99011.25;;;9.11;83.36
66430;BME280;53242;51.694;10.006;2023-03-22T05:56:45;99015.69;;;9.10;83.50
66430;BME280;53242;51.694;10.006;2023-03-22T05:59:08;99019.59;;;9.21;82.94
66430;BME280;53242;51.694;10.006;2023-03-22T06:01:31;99006.66;;;9.26;82.79
66430;BME280;53242;51.694;10.006;2023-03-22T06:04:09;99001.56;;;9.25;83.26
66430;BME280;53242;51.694;10.006;2023-03-22T06:06:45;99008.69;;;9.31;82.73
66430;BME280;53242;51.694;10.006;2023-03-22T06:09:22;99007.47;;;9.27;83.16
66430;BME280;53242;51.694;10.006;2023-03-22T06:11:47;99010.94;;;9.34;82.99
66430;BME280;53242;51.694;10.006;2023-03-22T06:14:11;99002.63;;;9.37;82.83
66430;BME280;53242;51.694;10.006;2023-03-22T06:16:54;99003.47;;;9.44;82.66
66430;BME280;53242;51.694;10.006;2023-03-22T06:19:16;99002.44;;;9.45;82.47
66430;BME280;53242;51.694;10.006;2023-03-22T06:21:40;99003.25;;;9.46;82.52
66430;BME280;53242;51.694;10.006;2023-03-22T06:24:02;98996.97;;;9.47;82.51
66430;BME280;53242;51.694;10.006;2023-03-22T06:26:25;99004.28;;;9.58;82.26
66430;BME280;53242;51.694;10.006;2023-03-22T06:28:47;98993.16;;;9.63;82.06
66430;BME280;53242;51.694;10.006;2023-03-22T06:31:10;98995.56;;;9.51;82.14
66430;BME280;53242;51.694;10.006;2023-03-22T06:33:41;98993.31;;;9.48;82.19
66430;BME280;53242;51.694;10.006;2023-03-22T06:36:15;99002.06;;;9.68;81.52
66430;BME280;53242;51.694;10.006;2023-03-22T06:38:57;99001.25;;;9.68;81.19
66430;BME280;53242;51.694;10.006;2023-03-22T06:41:22;99000.25;;;9.69;81.38
66430;BME280;53242;51.694;10.006;2023-03-22T06:43:45;98997.22;;;9.72;81.33
66430;BME280;53242;51.694;10.006;2023-03-22T06:46:29;98993.78;;;9.71;81.37
66430;BME280;53242;51.694;10.006;2023-03-22T06:49:01;98994.19;;;9.75;81.16
66430;BME280;53242;51.694;10.006;2023-03-22T06:51:23;98992.97;;;9.91;80.53
66430;BME280;53242;51.694;10.006;2023-03-22T06:53:46;98998.84;;;9.86;81.22
66430;BME280;53242;51.694;10.006;2023-03-22T06:56:09;98998.03;;;9.99;80.53
66430;BME280;53242;51.694;10.006;2023-03-22T06:58:41;99006.97;;;10.05;80.34
66430;BME280;53242;51.694;10.006;2023-03-22T07:01:04;99006.75;;;10.13;80.22
66430;BME280;53242;51.694;10.006;2023-03-22T07:03:28;99001.09;;;10.16;80.12
66430;BME280;53242;51.694;10.006;2023-03-22T07:06:05;99001.69;;;10.12;80.40
66430;BME280;53242;51.694;10.006;2023-03-22T07:08:29;98999.66;;;10.07;80.57
66430;BME280;53242;51.694;10.006;2023-03-22T07:10:52;99005.72;;;10.28;80.08
66430;BME280;53242;51.694;10.006;2023-03-22T07:13:18;99003.31;;;10.26;80.19
66430;BME280;53242;51.694;10.006;2023-03-22T07:15:42;99001.31;;;10.22;80.32
66430;BME280;53242;51.694;10.006;2023-03-22T07:18:12;99001.31;;;10.22;80.53
66430;BME280;53242;51.694;10.006;2023-03-22T07:20:35;98997.84;;;10.08;80.82
66430;BME280;53242;51.694;10.006;2023-03-22T07:23:00;99004.34;;;10.12;80.85
66430;BME280;53242;51.694;10.006;2023-03-22T07:25:25;98991.38;;;10.10;80.63
66430;BME280;53242;51.694;10.006;2023-03-22T07:27:55;98988.50;;;10.18;80.52
66430;BME280;53242;51.694;10.006;2023-03-22T07:30:18;98988.94;;;10.42;79.85
66430;BME280;53242;51.694;10.006;2023-03-22T07:32:42;98982.16;;;10.60;79.25
66430;BME280;53242;51.694;10.006;2023-03-22T07:35:08;98974.84;;;10.68;78.94
66430;BME280;53242;51.694;10.006;2023-03-22T07:37:30;98979.53;;;10.66;78.82
66430;BME280;53242;51.694;10.006;2023-03-22T07:39:53;98978.47;;;10.81;78.90
66430;BME280;53242;51.694;10.006;2023-03-22T07:42:16;98979.50;;;10.80;78.28
66430;BME280;53242;51.694;10.006;2023-03-22T07:45:03;98966.00;;;11.01;77.95
66430;BME280;53242;51.694;10.006;2023-03-22T07:47:55;98971.78;;;11.24;77.39
66430;BME280;53242;51.694;10.006;2023-03-22T07:50:33;98959.88;;;11.40;76.77
66430;BME280;53242;51.694;10.006;2023-03-22T07:52:59;98960.22;;;11.57;76.32
66430;BME280;53242;51.694;10.006;2023-03-22T07:55:21;98953.03;;;11.64;75.63
66430;BME280;53242;51.694;10.006;2023-03-22T07:57:44;98957.69;;;11.68;75.56
66430;BME280;53242;51.694;10.006;2023-03-22T08:00:08;98945.09;;;11.64;74.91
66430;BME280;53242;51.694;10.006;2023-03-22T08:02:45;98944.94;;;11.84;74.42
66430;BME280;53242;51.694;10.006;2023-03-22T08:05:17;98944.94;;;12.09;74.46
66430;BME280;53242;51.694;10.006;2023-03-22T08:07:41;98937.44;;;12.31;74.28
66430;BME280;53242;51.694;10.006;2023-03-22T08:10:05;98940.16;;;12.62;72.92
66430;BME280;53242;51.694;10.006;2023-03-22T08:12:29;98941.81;;;12.93;71.85
66430;BME280;53242;51.694;10.006;2023-03-22T08:15:12;98946.06;;;12.94;71.69
66430;BME280;53242;51.694;10.006;2023-03-22T08:17:37;98949.91;;;12.80;72.00
66430;BME280;53242;51.694;10.006;2023-03-22T08:20:02;98946.16;;;12.88;72.10
66430;BME280;53242;51.694;10.006;2023-03-22T08:22:40;98938.53;;;12.79;71.51
66430;BME280;53242;51.694;10.006;2023-03-22T08:25:38;98944.69;;;12.73;71.35
66430;BME280;53242;51.694;10.006;2023-03-22T08:28:05;98935.13;;;12.72;71.92
66430;BME280;53242;51.694;10.006;2023-03-22T08:30:27;98934.22;;;12.97;71.19
66430;BME280;53242;51.694;10.006;2023-03-22T08:32:50;98934.13;;;12.73;71.55
66430;BME280;53242;51.694;10.006;2023-03-22T08:35:13;98932.81;;;12.64;71.81
66430;BME280;53242;51.694;10.006;2023-03-22T08:37:36;98934.34;;;13.02;71.33
66430;BME280;53242;51.694;10.006;2023-03-22T08:40:00;98938.81;;;13.20;71.28
66430;BME280;53242;51.694;10.006;2023-03-22T08:42:32;98926.28;;;13.27;70.51
66430;BME280;53242;51.694;10.006;2023-03-22T08:44:54;98932.97;;;13.30;69.52
66430;BME280;53242;51.694;10.006;2023-03-22T08:47:20;98929.34;;;13.55;69.53
66430;BME280;53242;51.694;10.006;2023-03-22T08:49:46;98926.59;;;13.49;69.06
66430;BME280;53242;51.694;10.006;2023-03-22T08:52:26;98924.41;;;13.46;68.29
66430;BME280;53242;51.694;10.006;2023-03-22T08:54:56;98925.13;;;13.35;68.91
66430;BME280;53242;51.694;10.006;2023-03-22T08:57:47;98923.91;;;13.38;70.05
66430;BME280;53242;51.694;10.006;2023-03-22T09:00:35;98927.88;;;13.16;70.15
66430;BME280;53242;51.694;10.006;2023-03-22T09:03:07;98928.03;;;13.03;70.67
66430;BME280;53242;51.694;10.006;2023-03-22T09:05:29;98935.88;;;12.42;71.57
66430;BME280;53242;51.694;10.006;2023-03-22T09:07:52;98942.88;;;12.37;71.97
66430;BME280;53242;51.694;10.006;2023-03-22T09:10:41;98952.47;;;12.12;72.52
66430;BME280;53242;51.694;10.006;2023-03-22T09:13:06;98946.41;;;12.30;72.34
66430;BME280;53242;51.694;10.006;2023-03-22T09:15:28;98957.00;;;12.05;73.16
66430;BME280;53242;51.694;10.006;2023-03-22T09:18:04;98949.56;;;11.89;73.25
66430;BME280;53242;51.694;10.006;2023-03-22T09:20:27;98933.72;;;11.95;73.44
66430;BME280;53242;51.694;10.006;2023-03-22T09:22:50;98941.13;;;11.80;73.31
66430;BME280;53242;51.694;10.006;2023-03-22T09:25:14;98938.50;;;11.73;72.95
66430;BME280;53242;51.694;10.006;2023-03-22T09:27:39;98932.16;;;11.56;73.41
66430;BME280;53242;51.694;10.006;2023-03-22T09:30:02;98930.09;;;11.58;73.56
66430;BME280;53242;51.694;10.006;2023-03-22T09:32:25;98923.78;;;11.59;73.57
66430;BME280;53242;51.694;10.006;2023-03-22T09:34:53;98913.47;;;11.76;72.95
66430;BME280;53242;51.694;10.006;2023-03-22T09:37:18;98912.56;;;11.89;72.99
66430;BME280;53242;51.694;10.006;2023-03-22T09:39:46;98907.03;;;11.97;72.21
66430;BME280;53242;51.694;10.006;2023-03-22T09:44:47;98894.19;;;12.38;70.39
66430;BME280;53242;51.694;10.006;2023-03-22T09:47:18;98898.91;;;12.36;69.81
66430;BME280;53242;51.694;10.006;2023-03-22T09:49:44;98896.94;;;12.49;69.32
66430;BME280;53242;51.694;10.006;2023-03-22T09:52:13;98886.00;;;12.76;69.38
66430;BME280;53242;51.694;10.006;2023-03-22T09:54:40;98883.34;;;12.76;68.91
66430;BME280;53242;51.694;10.006;2023-03-22T09:57:08;98868.50;;;12.75;69.08
66430;BME280;53242;51.694;10.006;2023-03-22T09:59:45;98876.09;;;12.53;69.21
66430;BME280;53242;51.694;10.006;2023-03-22T10:02:37;98874.59;;;12.76;69.89
66430;BME280;53242;51.694;10.006;2023-03-22T10:10:25;98856.53;;;12.73;68.52
66430;BME280;53242;51.694;10.006;2023-03-22T10:13:04;98852.28;;;13.14;68.56
66430;BME280;53242;51.694;10.006;2023-03-22T10:15:38;98845.84;;;13.22;66.96
66430;BME280;53242;51.694;10.006;2023-03-22T10:18:05;98847.03;;;12.95;67.74
66430;BME280;53242;51.694;10.006;2023-03-22T10:20:41;98839.72;;;13.09;66.83
66430;BME280;53242;51.694;10.006;2023-03-22T10:23:09;98838.97;;;12.90;67.56
66430;BME280;53242;51.694;10.006;2023-03-22T10:25:37;98839.22;;;13.00;67.44
66430;BME280;53242;51.694;10.006;2023-03-22T10:28:01;98846.63;;;13.10;67.56
66430;BME280;53242;51.694;10.006;2023-03-22T10:30:25;98840.59;;;13.03;68.01
66430;BME280;53242;51.694;10.006;2023-03-22T10:32:54;98851.41;;;12.90;67.51
66430;BME280;53242;51.694;10.006;2023-03-22T10:35:18;98845.22;;;12.96;67.30
66430;BME280;53242;51.694;10.006;2023-03-22T10:37:43;98845.66;;;12.93;67.56
66430;BME280;53242;51.694;10.006;2023-03-22T10:40:09;98856.88;;;13.07;67.40
66430;BME280;53242;51.694;10.006;2023-03-22T10:42:35;98840.34;;;12.93;66.74
66430;BME280;53242;51.694;10.006;2023-03-22T10:45:03;98850.19;;;13.16;65.67
66430;BME280;53242;51.694;10.006;2023-03-22T10:47:31;98855.59;;;13.63;64.98
66430;BME280;53242;51.694;10.006;2023-03-22T10:49:55;98856.63;;;14.10;64.96
66430;BME280;53242;51.694;10.006;2023-03-22T10:52:32;98859.88;;;13.76;64.00
66430;BME280;53242;51.694;10.006;2023-03-22T10:54:58;98860.56;;;13.84;63.92
66430;BME280;53242;51.694;10.006;2023-03-22T10:57:20;98862.06;;;13.56;63.51
66430;BME280;53242;51.694;10.006;2023-03-22T11:02:21;98858.59;;;13.43;64.13
66430;BME280;53242;51.694;10.006;2023-03-22T11:04:49;98854.56;;;13.53;63.07
66430;BME280;53242;51.694;10.006;2023-03-22T11:07:25;98852.16;;;13.63;62.98
66430;BME280;53242;51.694;10.006;2023-03-22T11:09:47;98849.94;;;13.60;63.75
66430;BME280;53242;51.694;10.006;2023-03-22T11:12:11;98857.66;;;13.38;63.29
66430;BME280;53242;51.694;10.006;2023-03-22T11:14:36;98855.44;;;13.35;62.88
66430;BME280;53242;51.694;10.006;2023-03-22T11:19:32;98844.47;;;13.31;62.80
66430;BME280;53242;51.694;10.006;2023-03-22T11:21:56;98844.84;;;13.35;62.91
66430;BME280;53242;51.694;10.006;2023-03-22T11:24:19;98851.31;;;13.51;63.13
66430;BME280;53242;51.694;10.006;2023-03-22T11:27:01;98840.94;;;13.73;62.06
66430;BME280;53242;51.694;10.006;2023-03-22T11:29:23;98843.84;;;13.95;62.19
66430;BME280;53242;51.694;10.006;2023-03-22T11:31:54;98832.19;;;13.96;61.67
66430;BME280;53242;51.694;10.006;2023-03-22T11:34:19;98828.16;;;14.05;62.30
66430;BME280;53242;51.694;10.006;2023-03-22T11:36:43;98828.03;;;14.00;61.94
66430;BME280;53242;51.694;10.006;2023-03-22T11:39:06;98821.56;;;13.96;61.83
66430;BME280;53242;51.694;10.006;2023-03-22T11:41:33;98828.72;;;13.95;61.29
66430;BME280;53242;51.694;10.006;2023-03-22T11:43:59;98822.06;;;13.81;60.47
66430;BME280;53242;51.694;10.006;2023-03-22T11:46:23;98819.66;;;13.79;61.58
66430;BME280;53242;51.694;10.006;2023-03-22T11:48:48;98814.78;;;14.00;60.83
66430;BME280;53242;51.694;10.006;2023-03-22T11:51:13;98811.25;;;14.11;60.28
66430;BME280;53242;51.694;10.006;2023-03-22T11:53:42;98803.75;;;14.20;58.97
66430;BME280;53242;51.694;10.006;2023-03-22T11:56:08;98806.44;;;14.49;59.72
66430;BME280;53242;51.694;10.006;2023-03-22T12:01:30;98798.41;;;14.32;60.06
66430;BME280;53242;51.694;10.006;2023-03-22T12:03:55;98803.50;;;14.22;58.64
66430;BME280;53242;51.694;10.006;2023-03-22T12:06:20;98804.59;;;14.09;58.00
66430;BME280;53242;51.694;10.006;2023-03-22T12:08:47;98811.53;;;13.98;58.80
66430;BME280;53242;51.694;10.006;2023-03-22T12:11:16;98806.16;;;14.34;59.19
66430;BME280;53242;51.694;10.006;2023-03-22T12:13:44;98792.97;;;14.39;58.81
66430;BME280;53242;51.694;10.006;2023-03-22T12:16:11;98804.00;;;14.47;58.23
66430;BME280;53242;51.694;10.006;2023-03-22T12:18:48;98809.72;;;14.68;57.32
66430;BME280;53242;51.694;10.006;2023-03-22T12:21:12;98819.31;;;14.69;57.25
66430;BME280;53242;51.694;10.006;2023-03-22T12:23:34;98822.63;;;14.76;57.20
66430;BME280;53242;51.694;10.006;2023-03-22T12:26:03;98815.41;;;14.60;57.43
66430;BME280;53242;51.694;10.006;2023-03-22T12:28:32;98814.34;;;14.61;57.40
66430;BME280;53242;51.694;10.006;2023-03-22T12:30:57;98814.28;;;15.02;57.13
66430;BME280;53242;51.694;10.006;2023-03-22T12:33:39;98815.41;;;14.89;56.57
66430;BME280;53242;51.694;10.006;2023-03-22T12:36:05;98815.44;;;15.06;57.76
66430;BME280;53242;51.694;10.006;2023-03-22T12:38:45;98809.41;;;14.65;57.23
66430;BME280;53242;51.694;10.006;2023-03-22T12:41:13;98815.41;;;14.89;56.98
66430;BME280;53242;51.694;10.006;2023-03-22T12:43:45;98809.78;;;14.85;56.54
66430;BME280;53242;51.694;10.006;2023-03-22T12:46:17;98806.03;;;14.69;57.02
66430;BME280;53242;51.694;10.006;2023-03-22T12:49:18;98810.53;;;14.69;57.33
66430;BME280;53242;51.694;10.006;2023-03-22T12:51:42;98809.78;;;14.44;57.32
66430;BME280;53242;51.694;10.006;2023-03-22T12:54:05;98804.41;;;14.68;57.53
66430;BME280;53242;51.694;10.006;2023-03-22T12:56:42;98803.34;;;14.40;57.60
66430;BME280;53242;51.694;10.006;2023-03-22T12:59:13;98798.34;;;14.56;58.00
66430;BME280;53242;51.694;10.006;2023-03-22T13:01:45;98792.38;;;14.77;58.21
66430;BME280;53242;51.694;10.006;2023-03-22T13:09:50;98791.56;;;14.77;57.95
66430;BME280;53242;51.694;10.006;2023-03-22T13:30:28;98776.91;;;14.45;57.66
66430;BME280;53242;51.694;10.006;2023-03-22T13:32:56;98776.16;;;14.50;57.51
66430;BME280;53242;51.694;10.006;2023-03-22T13:37:47;98770.25;;;14.60;57.37
66430;BME280;53242;51.694;10.006;2023-03-22T13:40:26;98767.72;;;14.65;56.45
66430;BME280;53242;51.694;10.006;2023-03-22T13:42:51;98755.28;;;14.83;57.26
66430;BME280;53242;51.694;10.006;2023-03-22T13:45:31;98748.00;;;14.78;57.17
66430;BME280;53242;51.694;10.006;2023-03-22T13:50:47;98739.63;;;14.86;58.22
66430;BME280;53242;51.694;10.006;2023-03-22T13:53:18;98744.94;;;14.86;58.14
66430;BME280;53242;51.694;10.006;2023-03-22T14:00:57;98734.16;;;14.76;58.53
66430;BME280;53242;51.694;10.006;2023-03-22T14:03:35;98728.69;;;14.66;56.71
66430;BME280;53242;51.694;10.006;2023-03-22T14:06:10;98726.97;;;14.59;56.82
66430;BME280;53242;51.694;10.006;2023-03-22T14:08:35;98721.31;;;14.56;56.90